createdAt,value
2019-01-21T00:01:01.001Z,11.28
2019-01-21T00:03:28.045Z,11.80
2019-01-21T00:05:54.964Z,11.48
2019-01-21T00:08:21.937Z,11.25
2019-01-21T00:10:48.821Z,12.33
2019-01-21T00:13:15.905Z,10.50
2019-01-21T00:15:43.055Z,11.00
2019-01-21T00:18:10.210Z,12.33
2019-01-21T00:20:37.173Z,11.83
2019-01-21T00:23:04.109Z,12.58
2019-01-21T00:25:30.998Z,11.48
2019-01-21T00:27:57.934Z,11.22
2019-01-21T00:30:24.963Z,11.18
2019-01-21T00:32:51.934Z,10.85
2019-01-21T00:35:18.916Z,11.05
2019-01-21T00:37:45.929Z,12.33
2019-01-21T00:40:13.237Z,11.18
2019-01-21T00:42:40.205Z,10.90
2019-01-21T00:45:08.086Z,11.40
2019-01-21T00:47:35.155Z,11.43
2019-01-21T00:50:03.015Z,11.53
2019-01-21T00:52:29.909Z,11.65
2019-01-21T00:54:56.909Z,12.20
2019-01-21T00:57:24.019Z,12.33
2019-01-21T00:59:50.947Z,12.43
2019-01-21T01:02:17.910Z,12.40
2019-01-21T01:04:44.981Z,11.97
2019-01-21T01:07:11.905Z,12.68
2019-01-21T01:09:38.848Z,12.65
2019-01-21T01:12:05.759Z,11.33
2019-01-21T01:14:32.701Z,11.83
2019-01-21T01:16:59.601Z,12.05
2019-01-21T01:19:26.601Z,12.50
2019-01-21T01:21:53.538Z,10.88
2019-01-21T01:24:20.557Z,11.20
2019-01-21T01:26:47.669Z,13.55
2019-01-21T01:29:14.670Z,11.33
2019-01-21T01:31:41.717Z,11.12
2019-01-21T01:34:08.608Z,11.60
2019-01-21T01:36:35.567Z,10.80
2019-01-21T01:39:05.621Z,12.07
2019-01-21T01:41:32.560Z,11.78
2019-01-21T01:43:59.514Z,12.93
2019-01-21T01:46:26.609Z,11.30
2019-01-21T01:48:54.037Z,11.38
2019-01-21T01:51:20.932Z,11.60
2019-01-21T01:53:47.923Z,12.15
2019-01-21T01:56:14.981Z,12.60
2019-01-21T01:58:42.033Z,10.98
2019-01-21T02:01:08.996Z,10.85
2019-01-21T02:03:35.962Z,11.40
2019-01-21T02:06:03.064Z,12.45
2019-01-21T02:08:30.031Z,10.95
2019-01-21T02:10:57.012Z,11.33
2019-01-21T02:13:24.052Z,11.40
2019-01-21T02:15:51.239Z,11.10
2019-01-21T02:18:18.142Z,11.50
2019-01-21T02:20:46.887Z,11.03
2019-01-21T02:23:15.943Z,11.83
2019-01-21T02:25:51.615Z,12.00
2019-01-21T02:28:43.874Z,12.13
2019-01-21T02:31:52.061Z,11.00
2019-01-21T02:34:49.607Z,11.12
2019-01-21T02:38:13.424Z,12.25
2019-01-21T02:41:03.044Z,10.65
2019-01-21T02:44:00.891Z,11.70
2019-01-21T02:46:56.521Z,10.60
2019-01-21T02:50:07.323Z,11.97
2019-01-21T02:53:11.045Z,11.10
2019-01-21T02:56:20.062Z,9.75
2019-01-21T02:59:16.358Z,11.63
2019-01-21T03:02:33.720Z,9.98
2019-01-21T03:05:29.148Z,11.83
2019-01-21T03:08:56.559Z,11.05
2019-01-21T03:12:05.277Z,11.55
2019-01-21T03:15:24.988Z,11.33
2019-01-21T03:18:33.258Z,10.15
2019-01-21T03:21:48.202Z,11.40
2019-01-21T03:24:53.222Z,11.85
2019-01-21T03:28:08.354Z,11.73
2019-01-21T03:31:28.174Z,11.55
2019-01-21T03:34:40.292Z,11.08
2019-01-21T03:38:03.918Z,11.85
2019-01-21T03:41:12.441Z,10.38
2019-01-21T03:44:19.728Z,10.90
2019-01-21T03:47:17.550Z,11.75
2019-01-21T03:50:02.951Z,12.50
2019-01-21T03:53:18.129Z,12.55
2019-01-21T03:55:45.932Z,11.28
2019-01-21T03:58:34.651Z,12.00
2019-01-21T04:01:30.855Z,11.53
2019-01-21T04:04:19.225Z,13.75
2019-01-21T04:07:21.697Z,11.20
2019-01-21T04:10:27.817Z,13.08
2019-01-21T04:13:39.944Z,12.00
2019-01-21T04:16:47.385Z,12.50
2019-01-21T04:19:32.787Z,12.93
2019-01-21T04:22:29.171Z,12.05
2019-01-21T04:25:32.069Z,12.23
2019-01-21T04:28:30.015Z,11.33
2019-01-21T04:31:20.262Z,12.13
2019-01-21T04:34:35.286Z,13.08
2019-01-21T04:37:26.618Z,12.20
2019-01-21T04:40:27.985Z,10.95
2019-01-21T04:43:48.628Z,11.80
2019-01-21T04:46:51.621Z,11.75
2019-01-21T04:50:02.153Z,11.20
2019-01-21T04:53:09.106Z,12.95
2019-01-21T04:56:02.906Z,13.83
2019-01-21T04:59:06.753Z,13.45
2019-01-21T05:02:16.462Z,11.33
2019-01-21T05:05:11.257Z,11.55
2019-01-21T05:07:58.297Z,13.00
2019-01-21T05:11:08.670Z,12.40
2019-01-21T05:14:00.037Z,12.55
2019-01-21T05:17:17.830Z,11.80
2019-01-21T05:20:03.349Z,11.93
2019-01-21T05:22:48.581Z,12.65
2019-01-21T05:26:00.522Z,12.07
2019-01-21T05:28:51.058Z,11.90
2019-01-21T05:32:14.945Z,16.20
2019-01-21T05:34:53.157Z,13.45
2019-01-21T05:37:48.873Z,13.20
2019-01-21T05:40:43.980Z,11.95
2019-01-21T05:43:56.008Z,13.00
2019-01-21T05:46:59.904Z,14.33
2019-01-21T05:50:04.298Z,11.08
2019-01-21T05:53:25.065Z,13.43
2019-01-21T05:56:42.797Z,12.28
2019-01-21T05:59:46.213Z,13.38
2019-01-21T06:03:07.228Z,12.53
2019-01-21T06:06:08.823Z,12.47
2019-01-21T06:09:11.408Z,13.68
2019-01-21T06:12:03.986Z,12.82
2019-01-21T06:14:56.926Z,14.30
2019-01-21T06:17:48.530Z,14.50
2019-01-21T06:20:47.510Z,14.50
2019-01-21T06:23:43.201Z,13.53
2019-01-21T06:26:29.469Z,12.63
2019-01-21T06:29:28.326Z,13.13
2019-01-21T06:32:55.503Z,12.18
2019-01-21T06:35:47.720Z,11.83
2019-01-21T06:38:29.503Z,13.38
2019-01-21T06:41:32.652Z,12.60
2019-01-21T06:44:37.753Z,13.20
2019-01-21T06:47:28.060Z,11.90
2019-01-21T06:50:11.253Z,14.23
2019-01-21T06:53:41.305Z,12.25
2019-01-21T06:56:21.800Z,12.43
2019-01-21T06:59:49.265Z,12.37
2019-01-21T07:02:47.966Z,13.20
2019-01-21T07:05:48.745Z,12.43
2019-01-21T07:08:48.656Z,11.45
2019-01-21T07:11:47.614Z,12.18
2019-01-21T07:14:27.003Z,12.65
2019-01-21T07:17:17.873Z,13.60
2019-01-21T07:20:22.802Z,13.65
2019-01-21T07:23:22.299Z,13.70
2019-01-21T07:26:27.315Z,14.00
2019-01-21T07:29:36.179Z,14.68
2019-01-21T07:32:30.861Z,13.35
2019-01-21T07:35:39.850Z,12.93
2019-01-21T07:38:42.557Z,12.78
2019-01-21T07:41:53.562Z,15.18
2019-01-21T07:44:49.160Z,14.70
2019-01-21T07:47:59.964Z,14.28
2019-01-21T07:51:08.226Z,16.15
2019-01-21T07:54:22.926Z,15.68
2019-01-21T07:57:18.435Z,16.55
2019-01-21T08:00:36.069Z,17.23
2019-01-21T08:03:43.659Z,15.15
2019-01-21T08:06:23.135Z,15.28
2019-01-21T08:09:37.089Z,16.02
2019-01-21T08:12:49.212Z,16.27
2019-01-21T08:15:42.911Z,17.95
2019-01-21T08:18:41.528Z,17.92
2019-01-21T08:21:26.011Z,15.78
2019-01-21T08:24:32.377Z,15.63
2019-01-21T08:27:39.677Z,16.35
2019-01-21T08:31:06.558Z,15.10
2019-01-21T08:34:21.784Z,15.78
2019-01-21T08:37:12.008Z,15.65
2019-01-21T08:40:07.330Z,15.10
2019-01-21T08:43:20.967Z,14.03
2019-01-21T08:46:26.925Z,14.30
2019-01-21T08:49:38.418Z,15.43
2019-01-21T08:52:53.181Z,13.90
2019-01-21T08:56:20.024Z,15.38
2019-01-21T08:59:30.601Z,13.43
2019-01-21T09:02:36.561Z,13.80
2019-01-21T09:05:39.057Z,14.38
2019-01-21T09:08:37.736Z,14.10
2019-01-21T09:11:32.094Z,14.90
2019-01-21T09:14:26.738Z,13.83
2019-01-21T09:17:10.527Z,13.13
2019-01-21T09:20:28.402Z,14.65
2019-01-21T09:23:21.176Z,13.90
2019-01-21T09:26:21.295Z,14.60
2019-01-21T09:29:26.851Z,14.03
2019-01-21T09:32:34.798Z,14.55
2019-01-21T09:35:41.883Z,14.18
2019-01-21T09:38:36.210Z,14.10
2019-01-21T09:41:40.221Z,15.23
2019-01-21T09:44:22.299Z,14.80
2019-01-21T09:46:48.352Z,13.85
2019-01-21T09:49:14.256Z,14.50
2019-01-21T09:51:46.601Z,15.17
2019-01-21T09:54:13.905Z,12.93
2019-01-21T09:56:40.947Z,13.60
2019-01-21T09:59:08.081Z,12.45
2019-01-21T10:01:35.749Z,13.43
2019-01-21T10:04:03.857Z,15.32
2019-01-21T10:06:41.069Z,13.68
2019-01-21T10:09:28.958Z,15.58
2019-01-21T10:12:25.993Z,13.30
2019-01-21T10:15:21.444Z,12.40
2019-01-21T10:18:41.736Z,11.95
2019-01-21T10:21:31.776Z,13.13
2019-01-21T10:24:37.821Z,15.03
2019-01-21T10:27:24.220Z,14.50
2019-01-21T10:30:14.789Z,13.28
2019-01-21T10:33:19.554Z,14.00
2019-01-21T10:36:55.745Z,13.08
2019-01-21T10:40:03.259Z,13.00
2019-01-21T10:43:17.185Z,14.20
2019-01-21T10:46:27.524Z,12.65
2019-01-21T10:49:14.956Z,12.58
2019-01-21T10:52:17.743Z,13.90
2019-01-21T10:55:42.413Z,13.05
2019-01-21T10:58:54.544Z,15.00
2019-01-21T11:02:01.951Z,12.75
2019-01-21T11:04:40.612Z,12.68
2019-01-21T11:07:45.225Z,13.28
2019-01-21T11:11:15.191Z,13.00
2019-01-21T11:14:15.165Z,13.50
2019-01-21T11:17:14.050Z,13.10
2019-01-21T11:20:09.536Z,13.62
2019-01-21T11:23:11.934Z,12.88
2019-01-21T11:26:16.825Z,13.38
2019-01-21T11:29:17.908Z,12.28
2019-01-21T11:32:00.277Z,13.60
2019-01-21T11:35:15.028Z,13.75
2019-01-21T11:38:13.817Z,13.35
2019-01-21T11:41:10.143Z,14.55
2019-01-21T11:44:23.427Z,13.75
2019-01-21T11:47:19.370Z,12.93
2019-01-21T11:50:39.708Z,13.72
2019-01-21T11:53:23.694Z,14.65
2019-01-21T11:56:33.879Z,14.90
2019-01-21T11:59:51.802Z,12.20
2019-01-21T12:02:42.109Z,13.85
2019-01-21T12:05:43.062Z,14.13
2019-01-21T12:08:52.622Z,13.90
2019-01-21T12:11:29.302Z,12.50
2019-01-21T12:14:14.429Z,14.63
2019-01-21T12:17:17.929Z,14.10
2019-01-21T12:20:16.860Z,13.35
2019-01-21T12:23:13.916Z,15.13
2019-01-21T12:25:54.959Z,13.25
2019-01-21T12:29:16.913Z,14.75
2019-01-21T12:32:28.929Z,14.07
2019-01-21T12:35:31.492Z,14.13
2019-01-21T12:38:30.064Z,15.18
2019-01-21T12:41:28.181Z,15.38
2019-01-21T12:44:33.004Z,19.05
2019-01-21T12:47:08.774Z,13.88
2019-01-21T12:50:35.946Z,14.60
2019-01-21T12:53:22.917Z,14.35
2019-01-21T12:56:17.317Z,14.00
2019-01-21T12:59:04.410Z,14.65
2019-01-21T13:01:58.073Z,15.40
2019-01-21T13:05:00.613Z,16.05
2019-01-21T13:08:08.120Z,13.80
2019-01-21T13:11:19.889Z,16.40
2019-01-21T13:14:30.450Z,13.98
2019-01-21T13:17:03.181Z,14.65
2019-01-21T13:20:22.231Z,13.80
2019-01-21T13:23:20.225Z,14.87
2019-01-21T13:26:25.657Z,14.70
2019-01-21T13:29:05.622Z,13.93
2019-01-21T13:32:05.221Z,14.30
2019-01-21T13:35:29.677Z,14.03
2019-01-21T13:39:00.923Z,14.38
2019-01-21T13:42:11.644Z,15.05
2019-01-21T13:45:07.997Z,14.40
2019-01-21T13:48:19.051Z,16.93
2019-01-21T13:51:15.589Z,17.62
2019-01-21T13:54:01.059Z,15.20
2019-01-21T13:56:58.057Z,14.65
2019-01-21T14:00:25.481Z,15.45
2019-01-21T14:03:21.100Z,15.40
2019-01-21T14:06:25.725Z,15.35
2019-01-21T14:09:37.148Z,15.58
2019-01-21T14:12:19.309Z,15.90
2019-01-21T14:15:38.577Z,16.30
2019-01-21T14:18:43.668Z,15.35
2019-01-21T14:21:44.578Z,14.85
2019-01-21T14:25:06.005Z,17.23
2019-01-21T14:28:08.721Z,15.60
2019-01-21T14:31:22.581Z,17.67
2019-01-21T14:34:28.688Z,16.85
2019-01-21T14:37:13.729Z,16.12
2019-01-21T14:40:11.504Z,17.27
2019-01-21T14:43:26.301Z,15.60
2019-01-21T14:46:40.551Z,16.37
2019-01-21T14:49:43.652Z,16.75
2019-01-21T14:53:17.094Z,16.75
2019-01-21T14:56:11.747Z,17.40
2019-01-21T14:58:54.880Z,15.95
2019-01-21T15:01:41.523Z,17.20
2019-01-21T15:04:45.677Z,17.02
2019-01-21T15:07:28.155Z,16.10
2019-01-21T15:10:27.574Z,17.98
2019-01-21T15:13:35.002Z,16.70
2019-01-21T15:16:49.864Z,15.95
2019-01-21T15:19:28.762Z,16.77
2019-01-21T15:22:44.754Z,16.97
2019-01-21T15:26:03.525Z,17.15
2019-01-21T15:29:13.280Z,16.32
2019-01-21T15:32:10.845Z,17.60
2019-01-21T15:35:04.415Z,17.80
2019-01-21T15:38:04.400Z,17.37
2019-01-21T15:41:27.401Z,16.07
2019-01-21T15:44:35.478Z,16.87
2019-01-21T15:47:50.812Z,16.85
2019-01-21T15:50:32.929Z,18.80
2019-01-21T15:53:37.437Z,17.90
2019-01-21T15:56:23.786Z,17.32
2019-01-21T15:59:19.635Z,17.65
2019-01-21T16:02:04.687Z,16.75
2019-01-21T16:05:10.974Z,17.42
2019-01-21T16:07:55.087Z,18.00
2019-01-21T16:10:42.573Z,18.95
2019-01-21T16:13:46.807Z,18.80
2019-01-21T16:16:56.991Z,18.42
2019-01-21T16:19:43.301Z,18.02
2019-01-21T16:23:16.753Z,17.87
2019-01-21T16:26:18.672Z,17.48
2019-01-21T16:29:33.787Z,18.23
2019-01-21T16:32:11.143Z,16.02
2019-01-21T16:35:17.721Z,16.55
2019-01-21T16:37:59.566Z,17.52
2019-01-21T16:40:58.000Z,18.45
2019-01-21T16:43:25.360Z,17.02
2019-01-21T16:45:52.651Z,18.73
2019-01-21T16:48:21.230Z,17.45
2019-01-21T16:50:48.545Z,18.90
2019-01-21T16:53:15.906Z,17.12
2019-01-21T16:55:46.259Z,17.00
2019-01-21T16:58:16.212Z,16.52
2019-01-21T17:00:48.248Z,16.97
2019-01-21T17:03:15.260Z,17.50
2019-01-21T17:05:44.066Z,18.70
2019-01-21T17:08:11.267Z,19.30
2019-01-21T17:10:51.912Z,19.25
2019-01-21T17:13:36.676Z,16.90
2019-01-21T17:16:09.090Z,14.58
2019-01-21T17:18:33.029Z,16.45
2019-01-21T17:21:00.614Z,16.97
2019-01-21T17:23:27.696Z,15.00
2019-01-21T17:25:59.826Z,16.40
2019-01-21T17:28:27.650Z,16.80
2019-01-21T17:30:54.775Z,17.48
2019-01-21T17:33:21.866Z,17.10
2019-01-21T17:35:49.050Z,16.82
2019-01-21T17:38:16.054Z,17.37
2019-01-21T17:40:43.989Z,17.30
2019-01-21T17:43:11.063Z,17.17
2019-01-21T17:45:38.166Z,17.55
2019-01-21T17:48:05.193Z,17.90
2019-01-21T17:50:32.280Z,17.52
2019-01-21T17:52:59.202Z,16.05
2019-01-21T17:55:26.137Z,18.20
2019-01-21T17:57:53.268Z,17.37
2019-01-21T18:00:21.681Z,16.42
2019-01-21T18:02:48.862Z,16.37
2019-01-21T18:05:16.575Z,17.42
2019-01-21T18:07:43.729Z,17.75
2019-01-21T18:10:12.259Z,16.65
2019-01-21T18:12:39.424Z,17.02
2019-01-21T18:15:08.490Z,17.05
2019-01-21T18:17:35.644Z,15.72
2019-01-21T18:20:05.761Z,16.57
2019-01-21T18:22:32.822Z,15.35
2019-01-21T18:24:59.921Z,17.20
2019-01-21T18:27:26.909Z,17.48
2019-01-21T18:29:53.907Z,18.17
2019-01-21T18:32:21.021Z,16.73
2019-01-21T18:34:48.400Z,18.27
2019-01-21T18:37:15.593Z,15.85
2019-01-21T18:39:42.733Z,16.20
2019-01-21T18:42:09.853Z,17.30
2019-01-21T18:44:36.920Z,15.60
2019-01-21T18:47:04.071Z,16.70
2019-01-21T18:49:31.229Z,15.53
2019-01-21T18:51:58.351Z,16.67
2019-01-21T18:54:25.469Z,15.72
2019-01-21T18:56:52.534Z,14.68
2019-01-21T18:59:19.797Z,14.80
2019-01-21T19:01:46.933Z,16.42
2019-01-21T19:04:13.930Z,16.23
2019-01-21T19:06:40.968Z,15.15
2019-01-21T19:09:08.457Z,14.75
2019-01-21T19:11:35.354Z,14.60
2019-01-21T19:14:03.278Z,12.90
2019-01-21T19:16:30.444Z,16.02
2019-01-21T19:18:57.529Z,14.50
2019-01-21T19:21:24.781Z,15.93
2019-01-21T19:23:52.048Z,14.50
2019-01-21T19:26:19.261Z,13.88
2019-01-21T19:28:46.411Z,16.32
2019-01-21T19:31:13.502Z,14.63
2019-01-21T19:33:40.595Z,16.20
2019-01-21T19:36:07.567Z,17.32
2019-01-21T19:38:34.722Z,15.68
2019-01-21T19:41:01.789Z,15.78
2019-01-21T19:43:28.913Z,17.27
2019-01-21T19:45:55.895Z,15.08
2019-01-21T19:48:23.600Z,16.30
2019-01-21T19:50:50.791Z,17.35
2019-01-21T19:53:17.822Z,16.05
2019-01-21T19:55:44.782Z,15.30
2019-01-21T19:58:12.587Z,17.05
2019-01-21T20:00:39.918Z,14.90
2019-01-21T20:03:07.064Z,16.42
2019-01-21T20:05:34.106Z,14.60
2019-01-21T20:08:01.123Z,16.40
2019-01-21T20:10:28.804Z,15.90
2019-01-21T20:12:55.984Z,15.68
2019-01-21T20:15:23.143Z,16.93
2019-01-21T20:17:50.272Z,17.10
2019-01-21T20:20:22.535Z,16.97
2019-01-21T20:22:50.105Z,15.85
2019-01-21T20:25:17.168Z,23.73
2019-01-21T20:27:44.327Z,18.32
2019-01-21T20:30:16.128Z,15.60
2019-01-21T20:32:45.979Z,15.08
2019-01-21T20:35:13.693Z,15.88
2019-01-21T20:37:40.757Z,17.17
2019-01-21T20:40:10.723Z,14.45
2019-01-21T20:42:37.875Z,15.68
2019-01-21T20:45:05.603Z,14.87
2019-01-21T20:47:32.633Z,17.17
2019-01-21T20:49:59.744Z,15.58
2019-01-21T20:52:26.858Z,16.20
2019-01-21T20:54:53.977Z,16.35
2019-01-21T20:57:21.074Z,17.17
2019-01-21T20:59:48.170Z,16.15
2019-01-21T21:02:15.211Z,15.03
2019-01-21T21:04:42.337Z,16.25
2019-01-21T21:07:09.498Z,14.93
2019-01-21T21:09:36.707Z,13.28
2019-01-21T21:12:03.763Z,14.53
2019-01-21T21:14:30.877Z,14.60
2019-01-21T21:16:57.971Z,15.60
2019-01-21T21:19:24.942Z,15.20
2019-01-21T21:21:51.869Z,14.33
2019-01-21T21:24:19.058Z,14.28
2019-01-21T21:26:46.055Z,16.87
2019-01-21T21:29:13.121Z,15.68
2019-01-21T21:31:40.200Z,15.78
2019-01-21T21:34:07.633Z,16.55
2019-01-21T21:36:34.773Z,14.18
2019-01-21T21:39:03.950Z,16.77
2019-01-21T21:41:31.044Z,14.90
2019-01-21T21:43:59.065Z,15.35
2019-01-21T21:46:26.214Z,15.43
2019-01-21T21:48:53.311Z,14.65
2019-01-21T21:51:20.415Z,14.63
2019-01-21T21:53:47.421Z,15.45
2019-01-21T21:56:14.539Z,14.95
2019-01-21T21:58:41.542Z,15.38
2019-01-21T22:01:08.601Z,14.05
2019-01-21T22:03:35.633Z,14.18
2019-01-21T22:06:02.757Z,16.32
2019-01-21T22:08:29.781Z,16.07
2019-01-21T22:10:56.834Z,15.83
2019-01-21T22:13:23.856Z,18.48
2019-01-21T22:15:50.829Z,18.95
2019-01-21T22:18:17.889Z,18.05
2019-01-21T22:20:45.186Z,18.73
2019-01-21T22:23:12.313Z,18.62
2019-01-21T22:25:39.371Z,19.90
2019-01-21T22:28:06.405Z,17.85
2019-01-21T22:30:33.558Z,17.55
2019-01-21T22:33:00.849Z,18.25
2019-01-21T22:35:28.126Z,19.37
2019-01-21T22:37:55.211Z,19.27
2019-01-21T22:40:23.298Z,18.65
2019-01-21T22:42:50.429Z,16.35
2019-01-21T22:45:18.450Z,16.10
2019-01-21T22:47:45.504Z,15.70
2019-01-21T22:50:13.009Z,16.48
2019-01-21T22:52:42.016Z,14.13
2019-01-21T22:55:10.229Z,14.78
2019-01-21T22:57:37.242Z,12.45
2019-01-21T23:00:13.205Z,13.43
2019-01-21T23:02:40.541Z,14.13
2019-01-21T23:05:07.603Z,13.30
2019-01-21T23:07:34.666Z,13.83
2019-01-21T23:10:01.694Z,13.55
2019-01-21T23:12:28.780Z,13.38
2019-01-21T23:14:55.677Z,15.00
2019-01-21T23:17:22.969Z,13.45
2019-01-21T23:19:50.927Z,13.72
2019-01-21T23:22:17.958Z,13.45
2019-01-21T23:24:45.046Z,15.23
2019-01-21T23:27:12.035Z,14.10
2019-01-21T23:29:39.701Z,14.10
2019-01-21T23:32:06.720Z,13.60
2019-01-21T23:34:33.754Z,13.20
2019-01-21T23:37:00.907Z,12.73
2019-01-21T23:39:27.922Z,13.25
2019-01-21T23:41:54.948Z,14.25
2019-01-21T23:44:21.935Z,14.23
2019-01-21T23:46:49.136Z,13.45
2019-01-21T23:49:16.373Z,15.50
2019-01-21T23:51:43.394Z,14.53
2019-01-21T23:54:10.396Z,12.82
2019-01-21T23:56:37.369Z,13.88
2019-01-21T23:59:04.392Z,13.90
